createdAt,value
2019-03-23T00:00:02.329Z,102422.95
2019-03-23T00:02:30.668Z,102424.37
2019-03-23T00:04:58.984Z,102433.60
2019-03-23T00:07:27.243Z,102425.69
2019-03-23T00:09:55.680Z,102424.54
2019-03-23T00:12:23.925Z,102427.59
2019-03-23T00:14:52.177Z,102425.83
2019-03-23T00:17:20.524Z,102428.34
2019-03-23T00:19:49.098Z,102431.75
2019-03-23T00:22:17.432Z,102428.24
2019-03-23T00:24:45.757Z,102431.61
2019-03-23T00:27:14.021Z,102436.98
2019-03-23T00:29:42.372Z,102431.83
2019-03-23T00:32:10.784Z,102432.53
2019-03-23T00:34:39.079Z,102426.87
2019-03-23T00:37:07.338Z,102427.86
2019-03-23T00:39:35.728Z,102418.12
2019-03-23T00:42:03.980Z,102415.94
2019-03-23T00:44:32.240Z,102421.30
2019-03-23T00:47:00.663Z,102419.91
2019-03-23T00:49:28.958Z,102415.35
2019-03-23T00:51:57.921Z,102411.85
2019-03-23T00:54:26.305Z,102416.80
2019-03-23T00:56:54.666Z,102416.08
2019-03-23T00:59:23.201Z,102422.31
2019-03-23T01:01:51.554Z,102414.44
2019-03-23T01:04:20.373Z,102405.31
2019-03-23T01:06:52.332Z,102401.91
2019-03-23T01:09:18.844Z,102411.36
2019-03-23T01:11:47.137Z,102405.22
2019-03-23T01:14:15.529Z,102397.70
2019-03-23T01:16:43.830Z,102401.30
2019-03-23T01:19:12.081Z,102399.43
2019-03-23T01:21:40.389Z,102392.97
2019-03-23T01:24:08.657Z,102395.92
2019-03-23T01:26:36.936Z,102390.84
2019-03-23T01:29:05.229Z,102387.11
2019-03-23T01:31:33.533Z,102383.86
2019-03-23T01:34:01.926Z,102384.95
2019-03-23T01:36:30.177Z,102377.66
2019-03-23T01:38:58.450Z,102393.03
2019-03-23T01:41:26.816Z,102397.62
2019-03-23T01:43:55.300Z,102396.53
2019-03-23T01:46:23.528Z,102396.28
2019-03-23T01:48:51.781Z,102401.13
2019-03-23T01:51:20.224Z,102410.81
2019-03-23T01:53:48.475Z,102412.45
2019-03-23T01:56:17.293Z,102405.44
2019-03-23T01:58:45.730Z,102408.92
2019-03-23T02:01:14.049Z,102408.63
2019-03-23T02:03:42.308Z,102414.32
2019-03-23T02:06:10.714Z,102418.12
2019-03-23T02:08:38.982Z,102413.48
2019-03-23T02:11:07.230Z,102411.01
2019-03-23T02:13:35.565Z,102412.94
2019-03-23T02:16:03.820Z,102401.33
2019-03-23T02:18:33.111Z,102411.08
2019-03-23T02:21:02.236Z,102389.17
2019-03-23T02:23:30.490Z,102400.81
2019-03-23T02:25:58.934Z,102400.01
2019-03-23T02:28:27.241Z,102392.45
2019-03-23T02:30:55.555Z,102397.34
2019-03-23T02:33:23.858Z,102401.13
2019-03-23T02:35:52.683Z,102402.23
2019-03-23T02:38:20.950Z,102396.02
2019-03-23T02:40:49.278Z,102395.73
2019-03-23T02:43:17.595Z,102391.42
2019-03-23T02:45:46.054Z,102391.42
2019-03-23T02:48:14.349Z,102391.94
2019-03-23T02:50:42.796Z,102384.12
2019-03-23T02:53:11.049Z,102380.06
2019-03-23T02:55:40.391Z,102379.52
2019-03-23T02:58:08.722Z,102372.97
2019-03-23T03:00:37.040Z,102381.88
2019-03-23T03:03:05.403Z,102380.52
2019-03-23T03:05:33.681Z,102380.23
2019-03-23T03:08:01.926Z,102386.19
2019-03-23T03:10:40.722Z,102382.91
2019-03-23T03:13:09.062Z,102388.28
2019-03-23T03:15:37.362Z,102386.89
2019-03-23T03:18:06.688Z,102386.09
2019-03-23T03:20:35.062Z,102389.85
2019-03-23T03:23:03.612Z,102388.76
2019-03-23T03:25:31.952Z,102392.52
2019-03-23T03:28:00.387Z,102401.14
2019-03-23T03:30:28.717Z,102403.52
2019-03-23T03:32:56.966Z,102402.39
2019-03-23T03:35:25.250Z,102407.17
2019-03-23T03:37:56.706Z,102412.79
2019-03-23T03:40:23.522Z,102420.56
2019-03-23T03:42:51.858Z,102412.11
2019-03-23T03:45:27.729Z,102411.27
2019-03-23T03:47:56.134Z,102420.67
2019-03-23T03:50:24.422Z,102422.75
2019-03-23T03:52:52.666Z,102416.00
2019-03-23T03:55:21.081Z,102421.58
2019-03-23T03:57:49.337Z,102423.69
2019-03-23T04:00:17.661Z,102422.02
2019-03-23T04:02:45.952Z,102425.17
2019-03-23T04:05:14.237Z,102424.08
2019-03-23T04:07:42.623Z,102420.00
2019-03-23T04:10:10.876Z,102425.60
2019-03-23T04:12:39.147Z,102422.03
2019-03-23T04:15:08.785Z,102420.67
2019-03-23T04:17:37.162Z,102418.19
2019-03-23T04:20:07.940Z,102426.24
2019-03-23T04:22:36.753Z,102426.23
2019-03-23T04:25:09.332Z,102433.98
2019-03-23T04:27:37.632Z,102439.05
2019-03-23T04:30:07.309Z,102432.77
2019-03-23T04:32:35.595Z,102428.67
2019-03-23T04:35:04.584Z,102422.95
2019-03-23T04:37:32.901Z,102438.83
2019-03-23T04:40:01.501Z,102455.76
2019-03-23T04:42:29.928Z,102458.70
2019-03-23T04:44:58.213Z,102462.16
2019-03-23T04:47:26.837Z,102459.16
2019-03-23T04:49:55.112Z,102457.76
2019-03-23T04:52:23.412Z,102452.08
2019-03-23T04:54:51.796Z,102466.05
2019-03-23T04:57:20.107Z,102462.22
2019-03-23T04:59:48.402Z,102470.55
2019-03-23T05:02:16.699Z,102469.70
2019-03-23T05:04:44.997Z,102471.00
2019-03-23T05:07:13.657Z,102465.31
2019-03-23T05:09:42.346Z,102471.20
2019-03-23T05:12:10.690Z,102472.50
2019-03-23T05:14:39.511Z,102476.79
2019-03-23T05:17:08.042Z,102477.55
2019-03-23T05:19:36.340Z,102486.67
2019-03-23T05:22:04.592Z,102490.97
2019-03-23T05:24:32.931Z,102482.33
2019-03-23T05:27:01.400Z,102480.92
2019-03-23T05:29:30.102Z,102494.86
2019-03-23T05:31:58.351Z,102490.55
2019-03-23T05:34:26.660Z,102491.30
2019-03-23T05:36:55.703Z,102493.44
2019-03-23T05:39:23.991Z,102490.20
2019-03-23T05:41:52.272Z,102482.42
2019-03-23T05:44:20.725Z,102476.14
2019-03-23T05:46:48.973Z,102488.72
2019-03-23T05:49:17.859Z,102474.09
2019-03-23T05:51:46.543Z,102481.23
2019-03-23T05:54:14.785Z,102483.77
2019-03-23T05:56:43.068Z,102485.38
2019-03-23T05:59:11.347Z,102493.81
2019-03-23T06:01:39.599Z,102488.23
2019-03-23T06:04:08.047Z,102473.16
2019-03-23T06:06:36.294Z,102473.16
2019-03-23T06:09:06.448Z,102487.37
2019-03-23T06:11:34.732Z,102492.85
2019-03-23T06:14:03.291Z,102500.15
2019-03-23T06:16:31.753Z,102500.49
2019-03-23T06:19:00.049Z,102504.34
2019-03-23T06:21:28.295Z,102498.98
2019-03-23T06:23:56.609Z,102497.69
2019-03-23T06:26:24.892Z,102505.53
2019-03-23T06:28:53.141Z,102500.98
2019-03-23T06:31:21.522Z,102510.23
2019-03-23T06:33:49.790Z,102504.41
2019-03-23T06:36:18.082Z,102504.72
2019-03-23T06:38:46.347Z,102499.66
2019-03-23T06:41:14.743Z,102501.86
2019-03-23T06:43:43.018Z,102506.53
2019-03-23T06:48:42.213Z,102505.11
2019-03-23T06:51:10.526Z,102512.91
2019-03-23T06:53:40.349Z,102512.95
2019-03-23T06:56:08.612Z,102507.60
2019-03-23T06:58:38.585Z,102512.79
2019-03-23T07:01:07.058Z,102517.39
2019-03-23T07:03:35.340Z,102521.77
2019-03-23T07:06:03.778Z,102520.76
2019-03-23T07:08:32.420Z,102518.09
2019-03-23T07:11:00.823Z,102520.34
2019-03-23T07:13:29.170Z,102518.27
2019-03-23T07:15:57.439Z,102523.75
2019-03-23T07:18:25.673Z,102519.48
2019-03-23T07:20:53.975Z,102525.83
2019-03-23T07:23:22.231Z,102517.81
2019-03-23T07:25:50.542Z,102533.83
2019-03-23T07:28:18.826Z,102538.47
2019-03-23T07:30:47.081Z,102533.69
2019-03-23T07:33:15.469Z,102542.92
2019-03-23T07:35:44.238Z,102539.20
2019-03-23T07:38:12.535Z,102535.52
2019-03-23T07:40:40.826Z,102536.13
2019-03-23T07:43:09.150Z,102542.70
2019-03-23T07:45:37.445Z,102546.83
2019-03-23T07:48:05.698Z,102542.30
2019-03-23T07:50:33.977Z,102547.51
2019-03-23T07:53:02.333Z,102543.23
2019-03-23T07:55:31.362Z,102555.72
2019-03-23T07:57:59.638Z,102559.03
2019-03-23T08:00:27.896Z,102559.09
2019-03-23T08:02:56.174Z,102558.00
2019-03-23T08:05:24.436Z,102569.43
2019-03-23T08:07:52.748Z,102570.58
2019-03-23T08:10:29.516Z,102570.61
2019-03-23T08:12:57.852Z,102572.03
2019-03-23T08:15:26.241Z,102575.31
2019-03-23T08:17:55.103Z,102582.67
2019-03-23T08:20:23.806Z,102574.84
2019-03-23T08:22:52.827Z,102583.02
2019-03-23T08:25:21.124Z,102580.05
2019-03-23T08:27:49.441Z,102584.98
2019-03-23T08:30:17.706Z,102588.23
2019-03-23T08:32:46.043Z,102580.98
2019-03-23T08:35:14.308Z,102584.52
2019-03-23T08:37:42.622Z,102571.81
2019-03-23T08:40:10.977Z,102572.10
2019-03-23T08:42:39.324Z,102578.89
2019-03-23T08:45:08.221Z,102580.53
2019-03-23T08:47:36.462Z,102584.88
2019-03-23T08:50:06.348Z,102591.44
2019-03-23T08:52:34.608Z,102590.66
2019-03-23T08:55:02.920Z,102591.48
2019-03-23T08:57:31.187Z,102591.54
2019-03-23T08:59:59.508Z,102592.94
2019-03-23T09:02:27.821Z,102588.12
2019-03-23T09:04:56.074Z,102587.33
2019-03-23T09:07:24.338Z,102584.12
2019-03-23T09:09:59.171Z,102600.16
2019-03-23T09:12:22.637Z,102603.42
2019-03-23T09:14:50.912Z,102600.45
2019-03-23T09:17:19.225Z,102591.80
2019-03-23T09:19:47.521Z,102589.66
2019-03-23T09:22:15.819Z,102592.95
2019-03-23T09:24:44.160Z,102598.15
2019-03-23T09:27:13.566Z,102599.28
2019-03-23T09:29:42.691Z,102599.61
2019-03-23T09:32:11.451Z,102606.13
2019-03-23T09:34:39.861Z,102607.53
2019-03-23T09:37:08.692Z,102606.19
2019-03-23T09:39:38.022Z,102601.59
2019-03-23T09:42:07.154Z,102606.27
2019-03-23T09:44:35.595Z,102610.34
2019-03-23T09:47:03.910Z,102613.63
2019-03-23T09:49:32.201Z,102619.07
2019-03-23T09:52:00.509Z,102610.40
2019-03-23T09:54:29.038Z,102615.55
2019-03-23T09:56:59.595Z,102622.13
2019-03-23T09:59:27.999Z,102627.30
2019-03-23T10:01:56.334Z,102633.28
2019-03-23T10:04:24.637Z,102637.65
2019-03-23T10:06:53.067Z,102640.64
2019-03-23T10:09:21.319Z,102637.16
2019-03-23T10:11:49.580Z,102631.20
2019-03-23T10:14:17.901Z,102625.25
2019-03-23T10:16:46.254Z,102623.92
2019-03-23T10:19:15.275Z,102626.38
2019-03-23T10:21:43.582Z,102621.81
2019-03-23T10:24:11.886Z,102627.80
2019-03-23T10:26:40.154Z,102640.84
2019-03-23T10:29:08.449Z,102641.13
2019-03-23T10:31:36.836Z,102637.05
2019-03-23T10:34:05.227Z,102638.42
2019-03-23T10:36:33.474Z,102650.37
2019-03-23T10:39:02.735Z,102645.23
2019-03-23T10:41:30.988Z,102654.78
2019-03-23T10:43:59.243Z,102664.00
2019-03-23T10:46:27.633Z,102666.16
2019-03-23T10:48:55.888Z,102666.44
2019-03-23T10:51:24.230Z,102674.27
2019-03-23T10:53:52.556Z,102672.63
2019-03-23T10:56:20.817Z,102667.47
2019-03-23T10:58:49.098Z,102667.73
2019-03-23T11:01:17.354Z,102664.51
2019-03-23T11:03:45.643Z,102669.42
2019-03-23T11:06:13.944Z,102670.47
2019-03-23T11:08:42.221Z,102664.52
2019-03-23T11:11:10.469Z,102667.02
2019-03-23T11:13:38.781Z,102671.61
2019-03-23T11:16:07.071Z,102668.36
2019-03-23T11:18:35.340Z,102670.28
2019-03-23T11:21:03.685Z,102673.81
2019-03-23T11:23:32.075Z,102670.83
2019-03-23T11:26:00.380Z,102680.63
2019-03-23T11:28:28.663Z,102686.63
2019-03-23T11:30:57.003Z,102690.14
2019-03-23T11:33:25.260Z,102685.27
2019-03-23T11:35:57.667Z,102689.33
2019-03-23T11:38:23.579Z,102689.35
2019-03-23T11:40:55.061Z,102693.16
2019-03-23T11:43:21.963Z,102699.39
2019-03-23T11:45:50.251Z,102693.42
2019-03-23T11:48:18.528Z,102692.88
2019-03-23T11:50:46.788Z,102696.12
2019-03-23T11:53:15.125Z,102702.09
2019-03-23T11:55:43.558Z,102704.29
2019-03-23T11:58:11.851Z,102700.73
2019-03-23T12:00:40.484Z,102702.92
2019-03-23T12:03:08.742Z,102705.65
2019-03-23T12:05:37.000Z,102713.52
2019-03-23T12:08:05.352Z,102717.30
2019-03-23T12:10:33.603Z,102725.98
2019-03-23T12:13:01.919Z,102718.92
2019-03-23T12:15:30.232Z,102721.63
2019-03-23T12:17:58.509Z,102724.33
2019-03-23T12:20:26.831Z,102725.66
2019-03-23T12:22:55.141Z,102732.40
2019-03-23T12:25:23.657Z,102729.63
2019-03-23T12:27:51.901Z,102731.52
2019-03-23T12:30:20.157Z,102736.72
2019-03-23T12:32:48.438Z,102736.44
2019-03-23T12:35:16.818Z,102742.89
2019-03-23T12:37:45.105Z,102743.45
2019-03-23T12:40:13.432Z,102748.29
2019-03-23T12:42:41.712Z,102742.33
2019-03-23T12:45:10.880Z,102745.04
2019-03-23T12:47:39.159Z,102746.66
2019-03-23T12:50:08.246Z,102746.92
2019-03-23T12:52:36.568Z,102752.33
2019-03-23T12:55:08.831Z,102750.41
2019-03-23T12:57:37.185Z,102757.95
2019-03-23T13:00:14.672Z,102756.80
2019-03-23T13:02:43.051Z,102758.64
2019-03-23T13:05:11.306Z,102768.36
2019-03-23T13:07:39.565Z,102764.28
2019-03-23T13:10:12.542Z,102764.20
2019-03-23T13:12:40.785Z,102771.17
2019-03-23T13:15:11.280Z,102763.82
2019-03-23T13:17:39.609Z,102764.61
2019-03-23T13:20:09.010Z,102772.17
2019-03-23T13:22:37.301Z,102785.47
2019-03-23T13:25:07.844Z,102767.84
2019-03-23T13:27:36.087Z,102763.56
2019-03-23T13:30:13.233Z,102760.62
2019-03-23T13:32:41.545Z,102766.60
2019-03-23T13:35:09.841Z,102769.37
2019-03-23T13:37:38.088Z,102763.16
2019-03-23T13:40:07.515Z,102765.05
2019-03-23T13:42:35.785Z,102770.45
2019-03-23T13:45:07.058Z,102765.58
2019-03-23T13:47:35.311Z,102767.80
2019-03-23T13:50:05.280Z,102774.41
2019-03-23T13:52:33.547Z,102773.38
2019-03-23T13:55:01.970Z,102768.83
2019-03-23T13:57:30.394Z,102766.90
2019-03-23T13:59:58.667Z,102764.45
2019-03-23T14:02:27.105Z,102771.56
2019-03-23T14:04:55.358Z,102765.89
2019-03-23T14:07:23.754Z,102768.94
2019-03-23T14:09:52.164Z,102780.38
2019-03-23T14:12:20.401Z,102776.89
2019-03-23T14:14:48.832Z,102777.42
2019-03-23T14:17:17.945Z,102777.48
2019-03-23T14:19:46.400Z,102773.71
2019-03-23T14:22:14.664Z,102776.72
2019-03-23T14:24:42.967Z,102775.38
2019-03-23T14:27:11.367Z,102771.95
2019-03-23T14:29:39.655Z,102775.27
2019-03-23T14:32:08.618Z,102771.26
2019-03-23T14:34:36.869Z,102775.63
2019-03-23T14:37:05.164Z,102779.72
2019-03-23T14:39:34.044Z,102777.80
2019-03-23T14:42:05.081Z,102773.70
2019-03-23T14:44:32.395Z,102776.94
2019-03-23T14:47:00.668Z,102779.15
2019-03-23T14:49:28.921Z,102777.52
2019-03-23T14:51:57.214Z,102779.44
2019-03-23T14:54:25.465Z,102784.33
2019-03-23T14:56:54.633Z,102779.44
2019-03-23T14:59:22.937Z,102790.33
2019-03-23T15:01:51.191Z,102787.88
2019-03-23T15:04:20.054Z,102793.61
2019-03-23T15:06:48.326Z,102785.72
2019-03-23T15:09:16.609Z,102794.39
2019-03-23T15:11:44.961Z,102787.85
2019-03-23T15:14:13.206Z,102797.64
2019-03-23T15:16:41.453Z,102798.45
2019-03-23T15:19:09.732Z,102798.45
2019-03-23T15:21:37.979Z,102805.50
2019-03-23T15:24:06.358Z,102804.41
2019-03-23T15:26:34.607Z,102797.09
2019-03-23T15:29:02.871Z,102800.35
2019-03-23T15:31:31.257Z,102799.56
2019-03-23T15:33:59.515Z,102806.61
2019-03-23T15:36:27.762Z,102805.25
2019-03-23T15:38:56.154Z,102802.26
2019-03-23T15:41:24.839Z,102814.50
2019-03-23T15:43:53.156Z,102814.51
2019-03-23T15:46:21.495Z,102805.54
2019-03-23T15:48:49.749Z,102806.08
2019-03-23T15:51:18.130Z,102805.83
2019-03-23T15:53:46.372Z,102804.99
2019-03-23T15:56:14.616Z,102802.28
2019-03-23T15:58:42.919Z,102800.92
2019-03-23T16:01:11.237Z,102807.71
2019-03-23T16:03:39.483Z,102813.98
2019-03-23T16:06:07.900Z,102811.26
2019-03-23T16:08:36.183Z,102795.73
2019-03-23T16:11:04.481Z,102813.14
2019-03-23T16:13:32.877Z,102831.06
2019-03-23T16:16:01.137Z,102826.70
2019-03-23T16:18:29.425Z,102821.80
2019-03-23T16:20:57.704Z,102820.45
2019-03-23T16:23:26.043Z,102811.72
2019-03-23T16:25:54.343Z,102825.32
2019-03-23T16:28:22.690Z,102825.84
2019-03-23T16:30:51.010Z,102822.01
2019-03-23T16:33:19.273Z,102826.59
2019-03-23T16:35:47.555Z,102836.89
2019-03-23T16:38:15.950Z,102830.62
2019-03-23T16:40:44.273Z,102825.12
2019-03-23T16:43:12.514Z,102836.47
2019-03-23T16:45:40.802Z,102827.94
2019-03-23T16:48:09.111Z,102834.45
2019-03-23T16:50:37.399Z,102845.78
2019-03-23T16:53:05.737Z,102838.97
2019-03-23T16:55:34.032Z,102833.77
2019-03-23T16:58:02.351Z,102835.63
2019-03-23T17:00:37.674Z,102836.16
2019-03-23T17:03:06.212Z,102842.83
2019-03-23T17:05:36.372Z,102842.98
2019-03-23T17:08:04.605Z,102842.12
2019-03-23T17:10:32.910Z,102852.41
2019-03-23T17:13:01.185Z,102841.25
2019-03-23T17:15:29.461Z,102843.59
2019-03-23T17:17:57.741Z,102837.40
2019-03-23T17:20:26.005Z,102834.63
2019-03-23T17:22:54.269Z,102840.32
2019-03-23T17:25:22.869Z,102844.02
2019-03-23T17:27:51.153Z,102839.03
2019-03-23T17:30:19.516Z,102849.27
2019-03-23T17:32:47.815Z,102850.25
2019-03-23T17:35:16.108Z,102856.67
2019-03-23T17:37:44.404Z,102854.94
2019-03-23T17:40:12.776Z,102856.52
2019-03-23T17:42:41.067Z,102853.42
2019-03-23T17:45:09.888Z,102857.16
2019-03-23T17:47:38.244Z,102863.34
2019-03-23T17:50:06.513Z,102858.92
2019-03-23T17:52:35.112Z,102866.94
2019-03-23T17:55:04.502Z,102876.05
2019-03-23T17:57:32.771Z,102871.52
2019-03-23T18:00:01.045Z,102864.92
2019-03-23T18:02:29.390Z,102875.05
2019-03-23T18:04:57.684Z,102874.11
2019-03-23T18:07:25.950Z,102878.22
2019-03-23T18:09:54.339Z,102887.42
2019-03-23T18:12:22.762Z,102894.52
2019-03-23T18:14:51.048Z,102890.36
2019-03-23T18:17:19.288Z,102892.44
2019-03-23T18:19:47.720Z,102892.88
2019-03-23T18:22:15.981Z,102892.50
2019-03-23T18:24:44.228Z,102888.13
2019-03-23T18:27:12.502Z,102891.89
2019-03-23T18:29:40.958Z,102889.64
2019-03-23T18:32:09.323Z,102893.55
2019-03-23T18:34:37.611Z,102894.61
2019-03-23T18:37:06.056Z,102902.07
2019-03-23T18:39:34.515Z,102904.46
2019-03-23T18:42:02.818Z,102906.87
2019-03-23T18:44:31.061Z,102899.45
2019-03-23T18:46:59.306Z,102901.21
2019-03-23T18:49:27.696Z,102902.80
2019-03-23T18:51:55.977Z,102904.65
2019-03-23T18:54:24.255Z,102907.79
2019-03-23T18:56:52.517Z,102909.90
2019-03-23T18:59:20.820Z,102916.84
2019-03-23T19:01:49.091Z,102911.09
2019-03-23T19:04:17.327Z,102912.38
2019-03-23T19:06:45.637Z,102913.98
2019-03-23T19:09:13.963Z,102911.23
2019-03-23T19:11:42.249Z,102908.92
2019-03-23T19:14:12.252Z,102912.06
2019-03-23T19:16:41.291Z,102916.11
2019-03-23T19:19:09.893Z,102917.34
2019-03-23T19:21:38.326Z,102923.39
2019-03-23T19:24:06.636Z,102914.66
2019-03-23T19:26:34.880Z,102922.35
2019-03-23T19:29:03.148Z,102925.47
2019-03-23T19:31:31.595Z,102928.92
2019-03-23T19:34:00.754Z,102929.95
2019-03-23T19:36:29.061Z,102932.88
2019-03-23T19:38:57.319Z,102921.67
2019-03-23T19:41:25.773Z,102924.55
2019-03-23T19:43:54.024Z,102924.25
2019-03-23T19:46:22.314Z,102932.28
2019-03-23T19:48:50.619Z,102931.98
2019-03-23T19:51:18.919Z,102932.46
2019-03-23T19:53:47.339Z,102933.51
2019-03-23T19:56:15.582Z,102930.69
2019-03-23T19:58:43.896Z,102927.42
2019-03-23T20:01:12.206Z,102929.99
2019-03-23T20:03:40.564Z,102928.05
2019-03-23T20:06:08.936Z,102932.63
2019-03-23T20:08:37.282Z,102935.50
2019-03-23T20:11:05.577Z,102930.59
2019-03-23T20:13:33.863Z,102934.33
2019-03-23T20:16:02.191Z,102937.77
2019-03-23T20:18:30.577Z,102934.73
2019-03-23T20:20:58.822Z,102936.47
2019-03-23T20:23:27.190Z,102934.78
2019-03-23T20:25:55.594Z,102940.86
2019-03-23T20:28:23.841Z,102942.67
2019-03-23T20:30:52.091Z,102942.84
2019-03-23T20:33:20.450Z,102940.08
2019-03-23T20:35:48.692Z,102937.86
2019-03-23T20:38:17.178Z,102938.06
2019-03-23T20:40:45.455Z,102930.45
2019-03-23T20:43:13.735Z,102928.73
2019-03-23T20:45:41.993Z,102929.03
2019-03-23T20:48:10.258Z,102925.22
2019-03-23T20:50:38.534Z,102922.16
2019-03-23T20:53:06.811Z,102921.86
2019-03-23T20:55:35.109Z,102928.59
2019-03-23T20:58:03.357Z,102932.80
2019-03-23T21:00:31.607Z,102926.60
2019-03-23T21:02:59.882Z,102928.48
2019-03-23T21:05:33.760Z,102924.14
2019-03-23T21:07:58.099Z,102927.07
2019-03-23T21:10:26.421Z,102922.96
2019-03-23T21:12:54.818Z,102920.77
2019-03-23T21:15:23.221Z,102916.46
2019-03-23T21:17:51.746Z,102916.62
2019-03-23T21:20:20.058Z,102919.25
2019-03-23T21:22:48.324Z,102919.45
2019-03-23T21:25:16.809Z,102916.41
2019-03-23T21:27:45.127Z,102914.16
2019-03-23T21:30:14.934Z,102915.30
2019-03-23T21:32:43.279Z,102912.74
2019-03-23T21:35:11.954Z,102902.13
2019-03-23T21:37:40.513Z,102898.86
2019-03-23T21:40:08.759Z,102898.02
2019-03-23T21:42:37.052Z,102902.30
2019-03-23T21:45:08.203Z,102902.53
2019-03-23T21:47:36.456Z,102895.72
2019-03-23T21:50:07.146Z,102896.70
2019-03-23T21:52:35.492Z,102893.73
2019-03-23T21:55:04.621Z,102891.77
2019-03-23T21:57:32.855Z,102893.66
2019-03-23T22:00:01.154Z,102889.85
2019-03-23T22:02:29.545Z,102888.70
2019-03-23T22:04:57.781Z,102888.44
2019-03-23T22:07:26.038Z,102884.63
2019-03-23T22:09:54.330Z,102881.55
2019-03-23T22:12:22.690Z,102882.53
2019-03-23T22:14:50.960Z,102874.37
2019-03-23T22:17:19.306Z,102876.49
2019-03-23T22:19:47.622Z,102877.47
2019-03-23T22:22:15.922Z,102876.58
2019-03-23T22:24:44.242Z,102880.82
2019-03-23T22:27:12.492Z,102871.05
2019-03-23T22:29:40.747Z,102874.64
2019-03-23T22:32:09.154Z,102876.67
2019-03-23T22:34:37.435Z,102867.69
2019-03-23T22:37:05.731Z,102867.34
2019-03-23T22:39:34.132Z,102870.77
2019-03-23T22:42:02.372Z,102874.72
2019-03-23T22:44:30.743Z,102866.73
2019-03-23T22:46:59.048Z,102863.16
2019-03-23T22:49:28.087Z,102856.98
2019-03-23T22:51:56.846Z,102856.98
2019-03-23T22:54:25.164Z,102868.08
2019-03-23T22:56:53.494Z,102865.05
2019-03-23T22:59:21.806Z,102858.05
2019-03-23T23:01:50.152Z,102858.05
2019-03-23T23:04:18.482Z,102858.78
2019-03-23T23:06:46.781Z,102863.78
2019-03-23T23:09:15.202Z,102853.70
2019-03-23T23:11:43.529Z,102860.43
2019-03-23T23:14:11.801Z,102861.23
2019-03-23T23:16:40.212Z,102867.08
2019-03-23T23:19:08.457Z,102867.08
2019-03-23T23:21:36.706Z,102867.30
2019-03-23T23:24:04.971Z,102864.15
2019-03-23T23:26:33.535Z,102860.11
2019-03-23T23:29:01.909Z,102860.11
2019-03-23T23:31:30.292Z,102863.03
2019-03-23T23:33:58.528Z,102859.95
2019-03-23T23:36:26.824Z,102857.80
2019-03-23T23:38:55.087Z,102852.27
2019-03-23T23:41:23.355Z,102845.23
2019-03-23T23:43:51.676Z,102848.16
2019-03-23T23:46:19.914Z,102848.16
2019-03-23T23:48:51.487Z,102851.23
2019-03-23T23:51:18.161Z,102842.86
2019-03-23T23:53:46.556Z,102849.50
2019-03-23T23:56:14.794Z,102850.03
2019-03-23T23:58:43.044Z,102850.03
